Time;durP1;ratioP1;P1;durP2;ratioP2;P2;SDS_P1;SDS_P2;PMS_P1;PMS_P2;Temp;Humidity;BMP_temperature;BMP_pressure;BME280_temperature;BME280_humidity;BME280_pressure;Samples;Min_cycle;Max_cycle;Signal;HPM_P1;HPM_P2
2023/04/20 08:47:13;;;;;;;2.97;2.70;;;3.30;99.90;;;;;;5134624;27;20267;-79
2023/04/20 08:51:47;;;;;;;5.30;4.63;;;3.50;99.90;;;;;;5134230;27;20276;-79
2023/04/20 08:56:41;;;;;;;6.07;4.20;;;3.60;99.90;;;;;;5114257;27;20272;-80
2023/04/20 09:01:15;;;;;;;3.53;3.20;;;3.70;99.90;;;;;;5134749;27;20272;-81
2023/04/20 09:14:25;;;;;;;3.80;3.40;;;3.80;99.90;;;;;;5138184;27;20288;-79
2023/04/20 09:23:31;;;;;;;3.63;3.33;;;4.20;99.90;;;;;;5134753;27;20263;-79
2023/04/20 09:28:23;;;;;;;3.67;3.10;;;4.30;99.90;;;;;;5134955;27;20278;-79
2023/04/20 09:32:33;;;;;;;3.07;2.77;;;4.50;99.90;;;;;;5135540;27;20279;-79
2023/04/20 09:37:47;;;;;;;3.80;3.20;;;4.60;99.90;;;;;;5135309;27;20284;-79
2023/04/20 10:02:35;;;;;;;3.80;3.10;;;4.40;99.90;;;;;;5136530;27;20287;-79
2023/04/20 10:05:02;;;;;;;3.40;3.10;;;4.60;99.90;;;;;;5132675;28;20260;-76
2023/04/20 10:08:20;;;;;;;3.90;3.17;;;4.60;99.90;;;;;;5133384;27;20616;-77
2023/04/20 10:12:22;;;;;;;3.40;3.00;;;4.80;99.90;;;;;;5133071;27;20276;-76
2023/04/20 10:16:18;;;;;;;3.23;2.87;;;4.60;99.90;;;;;;5132923;27;20292;-77
2023/04/20 10:43:21;;;;;;;3.53;3.20;;;4.50;99.90;;;;;;5073639;28;20537;-80
2023/04/20 10:47:56;;;;;;;3.83;3.53;;;;;;;;;;5134229;27;20731;-79
2023/04/20 10:52:40;;;;;;;4.30;3.90;;;5.10;99.90;;;;;;5134488;27;20277;-80
2023/04/20 10:56:21;;;;;;;4.10;3.53;;;5.10;99.90;;;;;;5115113;27;20281;-79
2023/04/20 11:00:17;;;;;;;3.40;3.10;;;5.10;99.90;;;;;;5134320;27;20278;-80
2023/04/20 11:03:01;;;;;;;3.60;3.30;;;5.00;99.90;;;;;;5116117;28;20200;-80
2023/04/20 11:08:12;;;;;;;4.20;3.80;;;5.40;99.90;;;;;;5134380;27;20716;-80
2023/04/20 11:12:13;;;;;;;8.17;3.60;;;5.10;99.90;;;;;;5135422;27;20274;-80
2023/04/20 11:16:12;;;;;;;5.33;3.67;;;5.10;99.90;;;;;;5134431;27;20286;-79
2023/04/20 11:20:18;;;;;;;4.33;3.93;;;4.90;99.90;;;;;;5128310;27;20702;-79
2023/04/20 11:24:19;;;;;;;5.00;4.00;;;4.70;99.90;;;;;;5115925;27;20606;-80
2023/04/20 11:28:33;;;;;;;4.27;3.87;;;4.90;99.90;;;;;;5136150;27;20691;-79
2023/04/20 11:32:18;;;;;;;4.17;3.77;;;5.10;99.90;;;;;;5135226;27;20273;-80
2023/04/20 11:36:39;;;;;;;4.20;3.80;;;;;;;;;;5136180;27;20282;-80
2023/04/20 11:40:18;;;;;;;4.43;3.90;;;4.80;99.90;;;;;;5134433;27;20742;-79
2023/04/20 11:44:13;;;;;;;4.03;3.63;;;5.10;99.90;;;;;;5135268;27;20271;-79
2023/04/20 11:48:43;;;;;;;4.03;3.63;;;4.80;99.90;;;;;;5135536;27;20277;-80
2023/04/20 11:53:04;;;;;;;4.47;3.80;;;5.10;99.90;;;;;;5141336;27;20640;-79
2023/04/20 11:57:51;;;;;;;4.00;3.60;;;;;;;;;;5112292;27;20466;-78
2023/04/20 12:02:27;;;;;;;4.23;3.20;;;;;;;;;;5092496;28;20533;-78
2023/04/20 12:06:58;;;;;;;3.40;3.10;;;;;;;;;;5134941;27;20271;-79
2023/04/20 12:11:20;;;;;;;3.97;3.33;;;;;;;;;;5140336;27;20279;-78
2023/04/20 12:15:19;;;;;;;7.20;4.83;;;5.20;99.90;;;;;;5134507;27;20653;-80
2023/04/20 12:19:32;;;;;;;4.67;3.80;;;5.60;99.90;;;;;;5093623;27;20282;-79
2023/04/20 12:23:20;;;;;;;3.07;2.80;;;5.60;99.90;;;;;;5135689;27;20278;-79
2023/04/20 12:25:46;;;;;;;6.90;3.77;;;5.60;99.90;;;;;;5134660;28;20281;-80
2023/04/20 12:28:12;;;;;;;3.43;3.13;;;;;;;;;;5133882;28;20175;-79
2023/04/20 12:30:37;;;;;;;4.33;3.93;;;6.20;99.90;;;;;;5133776;28;20179;-79
2023/04/20 12:33:03;;;;;;;3.27;2.97;;;6.80;99.90;;;;;;5134792;27;20183;-79
2023/04/20 12:35:29;;;;;;;5.90;4.00;;;7.30;99.90;;;;;;5134226;28;20585;-79
2023/04/20 12:37:55;;;;;;;4.60;3.70;;;7.40;99.90;;;;;;5136867;28;20179;-79
2023/04/20 12:40:21;;;;;;;5.07;3.83;;;7.60;99.90;;;;;;5138706;27;20179;-79
2023/04/20 12:42:48;;;;;;;4.37;2.70;;;8.00;99.90;;;;;;5134376;28;20198;-79
2023/04/20 12:45:14;;;;;;;3.57;3.03;;;8.30;99.90;;;;;;5134375;27;20184;-80
2023/04/20 12:47:40;;;;;;;5.27;3.77;;;8.10;99.90;;;;;;5134770;27;20254;-79
2023/04/20 12:50:06;;;;;;;5.33;3.83;;;8.10;99.90;;;;;;5134005;28;20218;-80
2023/04/20 12:52:32;;;;;;;3.90;2.90;;;7.80;99.90;;;;;;5133585;28;20545;-79
2023/04/20 12:54:58;;;;;;;2.60;2.40;;;7.90;99.90;;;;;;5134760;27;20190;-79
2023/04/20 12:57:24;;;;;;;2.77;2.37;;;8.10;99.90;;;;;;5136772;28;20222;-79
2023/04/20 12:59:50;;;;;;;2.70;2.50;;;8.20;99.90;;;;;;5138812;27;20171;-79
2023/04/20 13:02:17;;;;;;;2.57;2.37;;;8.10;99.90;;;;;;5150239;27;20331;-79
2023/04/20 13:04:42;;;;;;;2.50;2.27;;;7.90;99.90;;;;;;5157166;27;20652;-80
2023/04/20 13:07:08;;;;;;;3.13;2.20;;;7.80;99.90;;;;;;5162162;27;20220;-80
2023/04/20 13:09:33;;;;;;;2.80;2.60;;;7.70;99.90;;;;;;5155882;27;20238;-79
2023/04/20 13:11:59;;;;;;;3.83;2.60;;;7.50;99.90;;;;;;5152977;27;20170;-80
2023/04/20 13:14:25;;;;;;;3.13;2.40;;;7.20;99.90;;;;;;5153426;27;20286;-80
2023/04/20 13:16:51;;;;;;;2.77;2.47;;;7.20;99.90;;;;;;5152689;27;20186;-80
2023/04/20 13:19:17;;;;;;;2.90;2.33;;;7.10;99.90;;;;;;5152835;27;20174;-80
2023/04/20 13:21:42;;;;;;;3.00;2.70;;;7.00;99.90;;;;;;5152777;27;20564;-80
2023/04/20 13:24:08;;;;;;;3.83;2.73;;;;;;;;;;5155070;27;20168;-80
2023/04/20 13:26:35;;;;;;;4.53;2.93;;;6.70;99.90;;;;;;5153393;27;20183;-79
2023/04/20 13:29:00;;;;;;;4.90;2.80;;;7.10;99.90;;;;;;5154126;27;20173;-80
2023/04/20 13:31:26;;;;;;;3.03;2.73;;;6.80;99.90;;;;;;5153477;27;20252;-80
2023/04/20 13:33:53;;;;;;;3.23;2.27;;;;;;;;;;5144839;27;20171;-80
2023/04/20 13:36:20;;;;;;;3.07;2.77;;;7.10;99.90;;;;;;5139468;27;20197;-80
2023/04/20 13:38:47;;;;;;;3.17;2.60;;;6.90;99.90;;;;;;5138601;27;20263;-79
2023/04/20 13:41:14;;;;;;;2.70;2.37;;;6.90;99.90;;;;;;5138964;27;20207;-79
2023/04/20 13:43:41;;;;;;;2.57;2.37;;;6.90;99.90;;;;;;5138485;27;20258;-80
2023/04/20 13:46:07;;;;;;;2.50;2.30;;;6.80;99.90;;;;;;5139267;27;20238;-81
2023/04/20 13:48:33;;;;;;;3.10;2.80;;;;;;;;;;5139787;27;20532;-80
2023/04/20 13:50:59;;;;;;;3.23;2.93;;;6.80;99.90;;;;;;5138520;27;20171;-80
2023/04/20 13:53:24;;;;;;;3.07;2.77;;;6.60;99.90;;;;;;5139043;27;20171;-80
2023/04/20 13:55:50;;;;;;;3.30;3.00;;;;;;;;;;5138389;27;20291;-80
2023/04/20 14:00:28;;;;;;;3.77;3.47;;;6.70;99.90;;;;;;5135398;27;20755;-79
2023/04/20 14:04:25;;;;;;;2.90;2.67;;;6.70;99.90;;;;;;5135770;27;20287;-80
2023/04/20 14:06:51;;;;;;;3.17;2.60;;;6.70;99.90;;;;;;5132947;28;20740;-79
2023/04/20 14:11:26;;;;;;;4.67;3.00;;;7.00;99.90;;;;;;5135031;27;20269;-79
2023/04/20 14:13:52;;;;;;;4.00;3.27;;;;;;;;;;5135332;28;20266;-81
2023/04/20 14:16:18;;;;;;;3.40;2.90;;;6.80;99.90;;;;;;5133567;28;20240;-79
2023/04/20 14:18:44;;;;;;;2.97;2.77;;;7.00;99.90;;;;;;5133943;28;20183;-79
2023/04/20 14:26:17;;;;;;;2.80;2.60;;;6.50;99.90;;;;;;5136465;27;20283;-79
2023/04/20 14:31:01;;;;;;;3.13;2.83;;;6.50;99.90;;;;;;5135310;27;20274;-81
2023/04/20 14:35:08;;;;;;;5.70;3.23;;;6.60;99.90;;;;;;5094903;28;20577;-79
2023/04/20 14:39:12;;;;;;;3.57;3.27;;;6.60;99.90;;;;;;5135768;27;20285;-81
2023/04/20 14:43:08;;;;;;;4.27;3.87;;;6.80;99.90;;;;;;5135902;27;20289;-80
2023/04/20 14:47:27;;;;;;;3.10;2.90;;;6.90;99.90;;;;;;5135932;27;20728;-79
2023/04/20 14:52:49;;;;;;;4.50;3.03;;;6.90;99.90;;;;;;5136185;27;20285;-80
2023/04/20 14:58:22;;;;;;;4.30;3.87;;;;;;;;;;5135941;27;20289;-82
2023/04/20 15:27:01;;;;;;;4.27;3.87;;;6.20;99.90;;;;;;5138287;27;20590;-79
2023/04/20 15:33:49;;;;;;;4.90;4.37;;;6.50;99.90;;;;;;5136088;27;20275;-79
2023/04/20 15:41:02;;;;;;;5.43;4.77;;;6.40;99.90;;;;;;5135808;27;20283;-79
2023/04/20 15:49:39;;;;;;;5.57;4.53;;;6.40;99.90;;;;;;5136889;27;20268;-80
